Terminal Aerodrome Forecast
Issued by NWS

Home | Current Version | Previous Version | Text Only | Print | Product List | Glossary On
Versions: 1 2 3 4 5 6 7 8 9 10 11 12 13 14 15 16 17 18
129
FTUS43 KIND 280551
TAFLAF
TAF
KLAF 280551Z 2806/2906 03006KT P6SM BKN060
     FM280800 03006KT 4SM BR BKN035
     FM280900 04006KT 3SM BR BKN020
     FM281300 04008KT P6SM BKN025
     FM281600 03011KT P6SM SCT060
      AMD LTD TO CLD VIS AND WIND TIL 281300=

USA.gov is the U.S. government's official web portal to all federal, state and local government web resources and services.